Time;durP1;ratioP1;P1;durP2;ratioP2;P2;SDS_P1;SDS_P2;PMS_P1;PMS_P2;Temp;Humidity;BMP_temperature;BMP_pressure;BME280_temperature;BME280_humidity;BME280_pressure;Samples;Min_cycle;Max_cycle;Signal;HPM_P1;HPM_P2
2023/08/30 00:00:21;;;;;;;3.10;2.20;;;13.30;99.90;;;;;;5076405;28;20183;-80
2023/08/30 00:02:47;;;;;;;2.60;1.70;;;13.30;99.90;;;;;;5076629;28;20295;-81
2023/08/30 00:05:13;;;;;;;2.60;2.40;;;13.20;99.90;;;;;;5074999;28;20631;-80
2023/08/30 00:07:39;;;;;;;2.73;2.50;;;13.20;99.90;;;;;;5076943;28;20230;-82
2023/08/30 00:10:06;;;;;;;2.83;2.40;;;13.00;99.90;;;;;;5074658;28;20588;-80
2023/08/30 00:12:32;;;;;;;5.03;2.40;;;12.90;99.90;;;;;;5075042;28;20207;-80
2023/08/30 00:14:57;;;;;;;2.70;1.90;;;12.90;99.90;;;;;;5075100;28;20197;-81
2023/08/30 00:17:23;;;;;;;2.93;2.33;;;12.90;99.90;;;;;;5075338;28;20620;-81
2023/08/30 00:19:48;;;;;;;2.23;2.03;;;12.80;99.90;;;;;;5074648;28;20169;-80
2023/08/30 00:22:14;;;;;;;2.27;2.10;;;12.80;99.90;;;;;;5074999;28;20235;-80
2023/08/30 00:24:40;;;;;;;2.70;2.20;;;12.80;99.90;;;;;;5075123;28;20209;-80
2023/08/30 00:27:06;;;;;;;2.87;2.40;;;12.70;99.90;;;;;;5075262;28;20221;-81
2023/08/30 00:29:31;;;;;;;2.80;2.00;;;12.80;99.90;;;;;;5074713;28;20180;-80
2023/08/30 00:31:57;;;;;;;2.07;1.90;;;12.80;99.90;;;;;;5075717;28;20187;-80
2023/08/30 00:34:23;;;;;;;2.67;2.13;;;12.70;99.90;;;;;;5074325;28;20250;-81
2023/08/30 00:36:48;;;;;;;2.40;2.00;;;12.70;99.90;;;;;;5074421;28;20592;-81
2023/08/30 00:39:14;;;;;;;2.80;2.20;;;12.80;99.90;;;;;;5075479;28;20208;-80
2023/08/30 00:41:40;;;;;;;2.50;2.30;;;12.80;99.90;;;;;;5073902;28;20201;-80
2023/08/30 00:44:06;;;;;;;3.87;2.63;;;12.70;99.90;;;;;;5079089;28;20188;-80
2023/08/30 00:46:33;;;;;;;2.40;2.20;;;12.80;99.90;;;;;;5078934;28;20173;-80
2023/08/30 00:48:59;;;;;;;3.07;2.27;;;12.70;99.90;;;;;;5078667;28;20173;-80
2023/08/30 00:51:26;;;;;;;2.40;2.13;;;12.60;99.90;;;;;;5077772;28;20181;-80
2023/08/30 00:53:54;;;;;;;2.80;2.03;;;12.60;99.90;;;;;;5079895;28;20322;-80
2023/08/30 00:56:20;;;;;;;4.70;2.40;;;12.70;99.90;;;;;;5078167;28;20177;-81
2023/08/30 00:58:46;;;;;;;2.93;2.20;;;12.70;99.90;;;;;;5077916;28;20205;-81
2023/08/30 01:01:13;;;;;;;2.60;1.97;;;12.60;99.90;;;;;;5077691;28;20189;-80
2023/08/30 01:03:39;;;;;;;3.17;1.97;;;12.70;99.90;;;;;;5079914;28;20529;-80
2023/08/30 01:06:05;;;;;;;2.70;2.50;;;12.70;99.90;;;;;;5080315;28;20234;-80
2023/08/30 01:08:30;;;;;;;3.50;2.13;;;12.60;99.90;;;;;;5078901;28;20184;-81
2023/08/30 01:11:07;;;;;;;2.77;2.50;;;12.60;99.90;;;;;;5077615;28;20177;-80
2023/08/30 01:13:42;;;;;;;2.40;2.20;;;12.60;99.90;;;;;;5077444;28;20224;-80
2023/08/30 01:16:08;;;;;;;2.70;2.50;;;12.40;99.90;;;;;;5077899;28;20207;-80
2023/08/30 01:18:36;;;;;;;4.23;2.73;;;12.30;99.90;;;;;;5078444;28;20550;-80
2023/08/30 01:21:05;;;;;;;4.93;2.60;;;12.30;99.90;;;;;;5077695;28;20225;-81
2023/08/30 01:23:42;;;;;;;2.67;2.27;;;12.20;99.90;;;;;;5079527;28;20694;-81
2023/08/30 01:26:26;;;;;;;2.60;2.00;;;12.20;99.90;;;;;;5078061;28;20274;-80
2023/08/30 01:28:53;;;;;;;2.53;2.33;;;12.10;99.90;;;;;;5078407;28;20177;-80
2023/08/30 01:31:21;;;;;;;3.20;2.70;;;12.20;99.90;;;;;;5079702;28;20215;-80
2023/08/30 01:33:48;;;;;;;3.87;2.33;;;12.30;99.90;;;;;;5077282;28;20694;-80
2023/08/30 01:36:14;;;;;;;3.83;2.57;;;12.30;99.90;;;;;;5078368;28;20212;-80
2023/08/30 01:38:40;;;;;;;3.50;2.43;;;12.30;99.90;;;;;;5070212;28;20177;-80
2023/08/30 01:41:06;;;;;;;2.50;2.30;;;12.20;99.90;;;;;;5070846;28;20199;-81
2023/08/30 01:43:32;;;;;;;3.90;2.77;;;12.10;99.90;;;;;;5077730;28;20284;-80
2023/08/30 01:46:00;;;;;;;2.80;2.50;;;12.00;99.90;;;;;;5076935;28;20234;-80
2023/08/30 01:48:28;;;;;;;3.87;2.50;;;12.00;99.90;;;;;;5078214;28;20225;-80
2023/08/30 01:50:58;;;;;;;2.73;2.53;;;12.00;99.90;;;;;;5070713;28;20250;-81
2023/08/30 01:53:24;;;;;;;4.50;2.53;;;11.90;99.90;;;;;;5079687;28;20573;-80
2023/08/30 01:55:50;;;;;;;2.70;2.50;;;12.00;99.90;;;;;;5076512;28;20655;-80
2023/08/30 01:58:16;;;;;;;4.00;2.50;;;12.10;99.90;;;;;;5060449;28;20186;-80
2023/08/30 02:00:41;;;;;;;2.60;2.40;;;12.10;99.90;;;;;;5076702;28;20211;-80
2023/08/30 02:03:09;;;;;;;4.10;2.33;;;12.10;99.90;;;;;;5079291;28;20200;-80
2023/08/30 02:05:39;;;;;;;3.83;2.30;;;11.90;99.90;;;;;;5077497;28;20183;-80
2023/08/30 02:08:13;;;;;;;2.87;2.33;;;12.00;99.90;;;;;;5069806;28;20230;-81
2023/08/30 02:10:44;;;;;;;2.30;2.10;;;11.90;99.90;;;;;;5069179;28;20177;-80
2023/08/30 02:13:12;;;;;;;2.90;2.23;;;11.90;99.90;;;;;;5077380;28;20225;-80
2023/08/30 02:15:40;;;;;;;3.10;2.40;;;11.90;99.90;;;;;;5078641;28;20184;-80
2023/08/30 02:18:06;;;;;;;4.33;2.60;;;11.70;99.90;;;;;;5077634;28;20272;-80
2023/08/30 02:20:32;;;;;;;3.07;2.50;;;11.70;99.90;;;;;;5078264;28;20196;-80
2023/08/30 02:22:59;;;;;;;3.93;2.40;;;11.60;99.90;;;;;;5077167;28;20195;-82
2023/08/30 02:25:25;;;;;;;4.03;2.70;;;11.60;99.90;;;;;;5102502;22;20268;-83
2023/08/30 02:27:50;;;;;;;2.40;2.20;;;11.70;99.90;;;;;;5059813;28;20173;-80
2023/08/30 02:30:16;;;;;;;2.90;2.53;;;11.80;99.90;;;;;;5059426;28;20241;-81
2023/08/30 02:32:41;;;;;;;2.70;2.50;;;11.80;99.90;;;;;;5058094;28;20174;-81
2023/08/30 02:35:07;;;;;;;2.43;2.20;;;11.90;99.90;;;;;;5074597;28;20193;-82
2023/08/30 02:37:33;;;;;;;3.40;2.53;;;11.90;99.90;;;;;;5078389;28;20179;-80
2023/08/30 02:39:58;;;;;;;4.00;2.60;;;11.80;99.90;;;;;;5078688;28;20227;-80
2023/08/30 02:42:25;;;;;;;2.40;2.20;;;11.80;99.90;;;;;;5077864;28;20269;-81
2023/08/30 02:44:51;;;;;;;4.20;2.67;;;11.80;99.90;;;;;;5077719;28;20196;-80
2023/08/30 02:47:17;;;;;;;4.07;3.17;;;11.70;99.90;;;;;;5079853;28;20172;-80
2023/08/30 02:49:42;;;;;;;5.23;2.83;;;11.60;99.90;;;;;;5077177;28;20172;-80
2023/08/30 02:52:09;;;;;;;3.33;2.93;;;11.50;99.90;;;;;;5077594;28;20177;-81
2023/08/30 02:54:34;;;;;;;5.10;3.57;;;11.50;99.90;;;;;;5077213;28;20208;-80
2023/08/30 02:57:00;;;;;;;14.20;4.27;;;11.50;99.90;;;;;;5078786;28;20184;-80
2023/08/30 02:59:25;;;;;;;10.23;3.63;;;11.70;99.90;;;;;;5079155;28;20187;-80
2023/08/30 03:01:51;;;;;;;10.83;3.57;;;11.60;99.90;;;;;;5078549;28;20640;-80
2023/08/30 03:04:17;;;;;;;5.00;3.83;;;11.50;99.90;;;;;;5077825;28;20284;-80
2023/08/30 03:06:43;;;;;;;5.10;3.47;;;11.40;99.90;;;;;;5077151;28;20169;-81
2023/08/30 03:09:08;;;;;;;4.33;3.37;;;11.50;99.90;;;;;;5077756;28;20635;-81
2023/08/30 03:11:34;;;;;;;8.30;4.20;;;11.50;99.90;;;;;;5077946;28;20235;-80
2023/08/30 03:13:59;;;;;;;4.33;3.80;;;11.50;99.90;;;;;;5076800;28;20189;-80
2023/08/30 03:16:25;;;;;;;9.10;4.40;;;11.50;99.90;;;;;;5078860;28;20180;-80
2023/08/30 03:18:51;;;;;;;6.20;4.07;;;11.60;99.90;;;;;;5077620;28;20177;-80
2023/08/30 03:21:17;;;;;;;9.20;3.80;;;11.60;99.90;;;;;;5078293;28;20203;-80
2023/08/30 03:23:42;;;;;;;11.53;3.93;;;11.70;99.90;;;;;;5076709;28;20200;-80
2023/08/30 03:26:10;;;;;;;7.87;3.50;;;11.70;99.90;;;;;;5077104;28;20173;-80
2023/08/30 03:28:36;;;;;;;9.17;3.80;;;11.60;99.90;;;;;;5078202;28;20183;-81
2023/08/30 03:31:01;;;;;;;13.00;4.00;;;11.50;99.90;;;;;;5075586;28;20173;-82
2023/08/30 03:33:27;;;;;;;11.27;4.33;;;11.60;99.90;;;;;;5076338;28;20268;-80
2023/08/30 03:35:52;;;;;;;4.33;3.73;;;11.50;99.90;;;;;;5078911;28;20170;-81
2023/08/30 03:38:18;;;;;;;4.83;3.60;;;11.60;99.90;;;;;;5078008;28;20183;-81
2023/08/30 03:40:44;;;;;;;4.17;3.60;;;11.60;99.90;;;;;;5076310;28;20582;-80
2023/08/30 03:43:10;;;;;;;7.83;3.50;;;11.60;99.90;;;;;;5078170;28;20659;-80
2023/08/30 03:45:36;;;;;;;4.17;3.53;;;11.70;99.90;;;;;;5078464;28;20189;-81
2023/08/30 03:48:02;;;;;;;3.90;3.47;;;11.70;99.90;;;;;;5078868;28;20169;-80
2023/08/30 03:50:28;;;;;;;3.63;3.33;;;11.70;99.90;;;;;;5077462;28;20177;-82
2023/08/30 03:52:53;;;;;;;4.30;3.50;;;11.70;99.90;;;;;;5076614;28;20259;-80
2023/08/30 03:55:19;;;;;;;3.93;3.57;;;11.70;99.90;;;;;;5077618;28;20195;-80
2023/08/30 03:57:45;;;;;;;4.00;3.60;;;11.70;99.90;;;;;;5077494;28;20244;-80
2023/08/30 04:00:11;;;;;;;4.70;3.70;;;11.80;99.90;;;;;;5075887;28;20189;-80
2023/08/30 04:02:36;;;;;;;5.73;3.73;;;11.70;99.90;;;;;;5077769;28;20208;-82
2023/08/30 04:05:03;;;;;;;4.70;3.30;;;11.70;99.90;;;;;;5078084;28;20189;-80
2023/08/30 04:07:29;;;;;;;3.80;3.50;;;11.70;99.90;;;;;;5077593;28;20182;-80
2023/08/30 04:09:54;;;;;;;5.27;3.50;;;11.70;99.90;;;;;;5075407;28;20207;-81
2023/08/30 04:12:20;;;;;;;8.30;3.67;;;11.60;99.90;;;;;;5075721;28;20192;-80
2023/08/30 04:14:47;;;;;;;5.00;3.73;;;11.70;99.90;;;;;;5075490;28;20196;-80
2023/08/30 04:17:13;;;;;;;5.43;3.73;;;11.60;99.90;;;;;;5076783;28;20226;-81
2023/08/30 04:19:38;;;;;;;3.73;3.13;;;11.70;99.90;;;;;;5074825;28;20229;-80
2023/08/30 04:22:04;;;;;;;3.50;3.20;;;11.60;99.90;;;;;;5077254;28;20188;-80
2023/08/30 04:24:29;;;;;;;3.33;3.03;;;11.70;99.90;;;;;;5075837;28;20212;-82
2023/08/30 04:26:55;;;;;;;3.27;2.97;;;11.80;99.90;;;;;;5077314;28;20244;-80
2023/08/30 04:29:21;;;;;;;4.17;2.90;;;11.70;99.90;;;;;;5075601;28;20169;-80
2023/08/30 04:31:46;;;;;;;3.23;2.93;;;11.60;99.90;;;;;;5075363;28;20644;-81
2023/08/30 04:34:12;;;;;;;3.50;2.97;;;11.60;99.90;;;;;;5076080;28;20189;-82
2023/08/30 04:36:37;;;;;;;3.77;3.30;;;11.60;99.90;;;;;;5077803;28;20165;-80
2023/08/30 04:39:03;;;;;;;3.50;3.20;;;11.60;99.90;;;;;;5074921;28;20234;-80
2023/08/30 04:41:29;;;;;;;4.53;3.33;;;11.60;99.90;;;;;;5074477;28;20287;-81
2023/08/30 04:43:54;;;;;;;4.53;3.27;;;11.70;99.90;;;;;;5075225;28;20212;-82
2023/08/30 04:46:20;;;;;;;3.27;2.97;;;11.80;99.90;;;;;;5077161;28;20169;-80
2023/08/30 04:48:46;;;;;;;3.90;3.00;;;11.70;99.90;;;;;;5075739;28;20187;-81
2023/08/30 04:51:11;;;;;;;2.70;2.50;;;11.60;99.90;;;;;;5076086;28;20238;-81
2023/08/30 04:53:37;;;;;;;4.03;2.70;;;11.60;99.90;;;;;;5075897;28;20177;-81
2023/08/30 04:56:13;;;;;;;3.07;2.80;;;11.60;99.90;;;;;;5076031;28;20169;-81
2023/08/30 04:58:39;;;;;;;3.33;2.90;;;11.60;99.90;;;;;;5074554;28;20181;-81
2023/08/30 05:01:05;;;;;;;2.97;2.77;;;11.80;99.90;;;;;;5075354;28;20287;-81
2023/08/30 05:03:30;;;;;;;2.90;2.60;;;11.80;99.90;;;;;;5099103;28;20173;-82
2023/08/30 05:05:56;;;;;;;3.10;2.80;;;11.80;99.90;;;;;;5075046;28;20185;-81
2023/08/30 05:08:21;;;;;;;3.10;2.80;;;11.80;99.90;;;;;;5077035;28;20177;-81
2023/08/30 05:10:48;;;;;;;3.27;2.97;;;11.90;99.90;;;;;;5074504;28;20212;-81
2023/08/30 05:13:16;;;;;;;2.97;2.70;;;11.90;99.90;;;;;;5075674;28;20180;-84
2023/08/30 05:15:41;;;;;;;3.63;2.80;;;12.00;99.90;;;;;;5074346;28;20227;-84
2023/08/30 05:18:07;;;;;;;4.13;3.00;;;12.00;99.90;;;;;;5076767;28;20218;-81
2023/08/30 05:20:32;;;;;;;2.90;2.70;;;12.10;99.90;;;;;;5075638;28;20192;-79
2023/08/30 05:22:58;;;;;;;5.53;3.03;;;12.30;99.90;;;;;;5074962;28;20169;-81
2023/08/30 05:25:24;;;;;;;3.03;2.80;;;12.20;99.90;;;;;;5075697;28;20295;-79
2023/08/30 05:27:49;;;;;;;3.70;3.40;;;12.20;99.90;;;;;;5075533;28;20207;-80
2023/08/30 05:30:16;;;;;;;3.60;3.23;;;12.20;99.90;;;;;;5076133;28;20176;-81
2023/08/30 05:32:41;;;;;;;3.00;2.80;;;12.20;99.90;;;;;;5078897;28;20165;-82
2023/08/30 05:35:07;;;;;;;3.40;3.10;;;12.20;99.90;;;;;;5081222;28;20274;-83
2023/08/30 05:37:33;;;;;;;4.80;3.20;;;12.20;99.90;;;;;;5079706;28;20168;-81
2023/08/30 05:39:58;;;;;;;3.17;2.87;;;12.20;99.90;;;;;;5081357;28;20175;-82
2023/08/30 05:42:24;;;;;;;4.60;3.30;;;12.20;99.90;;;;;;5078817;28;20219;-81
2023/08/30 05:44:49;;;;;;;3.30;3.00;;;12.30;99.90;;;;;;5078416;28;20685;-82
2023/08/30 05:47:16;;;;;;;3.40;2.90;;;12.30;99.90;;;;;;5079271;28;20177;-81
2023/08/30 05:49:42;;;;;;;3.50;3.20;;;12.40;99.90;;;;;;5078548;28;20166;-82
2023/08/30 05:52:08;;;;;;;3.87;3.53;;;12.50;99.90;;;;;;5081486;28;20177;-81
2023/08/30 05:54:34;;;;;;;3.50;3.20;;;12.60;99.90;;;;;;5079476;28;20193;-82
2023/08/30 05:56:59;;;;;;;3.70;3.23;;;12.60;99.90;;;;;;5081931;28;20177;-81
2023/08/30 05:59:25;;;;;;;4.27;3.60;;;12.60;99.90;;;;;;5079122;28;20177;-79
2023/08/30 06:01:51;;;;;;;3.77;3.40;;;12.70;99.90;;;;;;5081224;28;20270;-80
2023/08/30 06:04:16;;;;;;;2.23;2.03;;;12.80;99.90;;;;;;5078755;28;20265;-79
2023/08/30 06:06:42;;;;;;;3.90;2.13;;;14.90;99.90;;;;;;5081623;28;20173;-80
2023/08/30 06:09:07;;;;;;;3.90;1.80;;;16.20;99.90;;;;;;5080508;28;20194;-80
2023/08/30 06:11:33;;;;;;;6.13;4.30;;;17.30;99.90;;;;;;5081929;28;20176;-80
2023/08/30 06:14:01;;;;;;;3.13;2.27;;;18.00;99.90;;;;;;5081786;28;20193;-80
2023/08/30 06:16:27;;;;;;;2.67;2.23;;;18.30;11.70;;;;;;5083185;28;20169;-80
2023/08/30 06:18:52;;;;;;;5.07;2.20;;;18.10;1.00;;;;;;5080012;28;20520;-80
2023/08/30 06:21:18;;;;;;;2.83;2.50;;;18.30;99.90;;;;;;5082183;28;20277;-80
2023/08/30 06:23:44;;;;;;;4.43;2.27;;;18.40;37.40;;;;;;5082232;28;20196;-79
2023/08/30 06:26:09;;;;;;;2.33;2.13;;;18.40;1.00;;;;;;5080219;28;20169;-79
2023/08/30 06:28:35;;;;;;;2.43;1.93;;;18.40;1.00;;;;;;5080116;28;20177;-79
2023/08/30 06:31:00;;;;;;;2.70;2.40;;;18.30;1.00;;;;;;5082478;28;20176;-79
2023/08/30 06:33:26;;;;;;;2.47;2.27;;;18.30;99.90;;;;;;5082492;28;20209;-79
2023/08/30 06:35:53;;;;;;;2.77;2.30;;;18.20;1.00;;;;;;5081039;28;20202;-80
2023/08/30 06:38:19;;;;;;;2.50;2.13;;;17.80;1.00;;;;;;5080838;28;20202;-79
2023/08/30 06:40:45;;;;;;;3.07;2.20;;;17.60;1.00;;;;;;5080500;28;20257;-79
2023/08/30 06:43:11;;;;;;;2.47;2.03;;;17.60;1.00;;;;;;5082822;28;20177;-80
2023/08/30 06:45:41;;;;;;;3.50;1.93;;;17.40;19.10;;;;;;5080740;28;20196;-80
2023/08/30 06:48:07;;;;;;;3.20;2.80;;;17.50;1.00;;;;;;5083479;28;20173;-80
2023/08/30 06:50:33;;;;;;;2.70;2.50;;;17.50;1.00;;;;;;5084629;28;20196;-79
2023/08/30 06:52:59;;;;;;;2.90;2.60;;;17.40;1.00;;;;;;5081971;28;20636;-79
2023/08/30 06:55:24;;;;;;;3.50;2.80;;;17.20;1.00;;;;;;5079186;28;20185;-80
2023/08/30 06:57:50;;;;;;;2.43;2.07;;;17.40;1.00;;;;;;5079314;28;20177;-78
2023/08/30 07:00:16;;;;;;;4.23;2.07;;;17.90;1.00;;;;;;5080985;28;20177;-81
2023/08/30 07:02:45;;;;;;;6.20;1.80;;;17.80;1.00;;;;;;5079637;28;20196;-81
2023/08/30 07:05:11;;;;;;;3.33;2.30;;;18.10;1.00;;;;;;5078349;28;20204;-80
2023/08/30 07:07:37;;;;;;;7.70;2.93;;;18.10;1.00;;;;;;5077964;28;20185;-79
2023/08/30 07:10:03;;;;;;;3.40;3.10;;;18.10;99.90;;;;;;5078640;28;20169;-82
2023/08/30 07:12:28;;;;;;;4.13;3.57;;;17.70;1.00;;;;;;5077715;28;20181;-83
2023/08/30 07:14:54;;;;;;;4.97;3.90;;;17.20;99.90;;;;;;5077818;28;20212;-82
2023/08/30 07:17:20;;;;;;;2.60;2.40;;;16.70;1.00;;;;;;5077027;28;20173;-83
2023/08/30 07:19:45;;;;;;;3.87;2.93;;;16.50;99.90;;;;;;5077076;28;20591;-82
2023/08/30 07:22:11;;;;;;;3.90;3.60;;;17.00;1.00;;;;;;5078605;28;20211;-82
2023/08/30 07:24:36;;;;;;;3.20;2.70;;;17.60;1.00;;;;;;5077390;28;20221;-81
2023/08/30 07:27:02;;;;;;;3.73;3.33;;;17.80;1.00;;;;;;5076352;28;20165;-81
2023/08/30 07:29:28;;;;;;;4.53;3.83;;;17.60;99.90;;;;;;5077938;28;20173;-80
2023/08/30 07:31:54;;;;;;;4.60;4.07;;;17.10;1.00;;;;;;5077099;28;20173;-83
2023/08/30 07:34:20;;;;;;;5.50;3.83;;;16.50;1.00;;;;;;5077412;28;20294;-82
2023/08/30 07:36:46;;;;;;;4.50;4.10;;;16.20;99.90;;;;;;5077941;28;20177;-81
2023/08/30 07:39:12;;;;;;;4.40;4.00;;;16.10;99.90;;;;;;5076838;28;20268;-83
2023/08/30 07:41:37;;;;;;;4.20;3.80;;;15.90;99.90;;;;;;5076474;28;20288;-82
2023/08/30 07:44:03;;;;;;;4.40;4.00;;;16.10;99.90;;;;;;5078206;28;20216;-82
2023/08/30 07:46:29;;;;;;;5.90;4.20;;;15.90;99.90;;;;;;5077512;28;20751;-81
2023/08/30 07:48:55;;;;;;;5.17;4.23;;;15.90;99.90;;;;;;5079641;28;20169;-82
2023/08/30 07:51:21;;;;;;;4.50;4.10;;;15.90;99.90;;;;;;5079643;28;20581;-82
2023/08/30 07:53:47;;;;;;;4.67;4.23;;;15.90;99.90;;;;;;5077205;28;20224;-82
2023/08/30 07:56:13;;;;;;;4.60;4.20;;;15.80;99.90;;;;;;5077252;28;20176;-81
2023/08/30 07:58:40;;;;;;;4.70;4.27;;;15.80;99.90;;;;;;5079949;28;20176;-82
2023/08/30 08:01:05;;;;;;;4.80;4.40;;;15.80;99.90;;;;;;5078248;28;20201;-82
2023/08/30 08:03:31;;;;;;;4.57;4.17;;;16.00;99.90;;;;;;5078104;28;20173;-81
2023/08/30 08:05:59;;;;;;;4.73;3.90;;;16.10;99.90;;;;;;5078051;28;20242;-81
2023/08/30 08:08:25;;;;;;;4.60;4.20;;;16.20;99.90;;;;;;5077939;28;20183;-82
2023/08/30 08:10:51;;;;;;;4.43;4.00;;;16.20;99.90;;;;;;5075674;28;20205;-82
2023/08/30 08:13:17;;;;;;;4.43;3.97;;;16.10;99.90;;;;;;5076275;28;20284;-82
2023/08/30 08:15:44;;;;;;;5.23;4.00;;;16.10;99.90;;;;;;5077559;28;20637;-82
2023/08/30 08:18:10;;;;;;;6.07;3.90;;;16.20;99.90;;;;;;5076558;28;20241;-82
2023/08/30 08:20:36;;;;;;;4.03;3.73;;;16.30;99.90;;;;;;5078010;28;20189;-82
2023/08/30 08:23:02;;;;;;;4.10;3.70;;;16.40;99.90;;;;;;5076574;28;20184;-81
2023/08/30 08:25:28;;;;;;;4.23;3.67;;;16.40;1.00;;;;;;5083255;22;20229;-82
2023/08/30 08:27:54;;;;;;;4.17;3.30;;;16.50;99.90;;;;;;5052005;28;20173;-82
2023/08/30 08:30:20;;;;;;;5.80;4.07;;;16.60;99.90;;;;;;5051375;28;20173;-84
2023/08/30 08:32:47;;;;;;;6.77;3.87;;;16.70;1.00;;;;;;5052236;28;20224;-83
2023/08/30 08:35:13;;;;;;;5.10;3.93;;;16.70;1.00;;;;;;5050935;28;20229;-82
2023/08/30 08:37:39;;;;;;;4.57;3.90;;;16.70;1.00;;;;;;5051784;28;20335;-82
2023/08/30 08:40:08;;;;;;;4.47;3.70;;;16.80;1.00;;;;;;5051482;28;20185;-83
2023/08/30 08:42:35;;;;;;;5.07;4.53;;;16.90;1.00;;;;;;5051753;28;20194;-82
2023/08/30 08:45:02;;;;;;;5.43;4.93;;;17.10;1.00;;;;;;5050346;28;20247;-81
2023/08/30 08:47:30;;;;;;;4.73;4.33;;;17.20;1.00;;;;;;5050681;28;20174;-83
2023/08/30 08:49:56;;;;;;;5.87;4.17;;;17.20;1.00;;;;;;5051933;28;20169;-82
2023/08/30 08:52:21;;;;;;;6.40;4.57;;;17.20;1.00;;;;;;5051093;28;20181;-82
2023/08/30 08:54:47;;;;;;;5.17;3.80;;;17.30;1.00;;;;;;5052182;28;20228;-80
2023/08/30 08:57:13;;;;;;;5.07;4.17;;;17.50;1.00;;;;;;5041465;28;20182;-81
2023/08/30 08:59:39;;;;;;;3.80;3.30;;;17.70;1.00;;;;;;5044197;28;20173;-80
2023/08/30 09:02:06;;;;;;;4.90;3.77;;;17.90;99.90;;;;;;5048105;28;20211;-83
2023/08/30 09:04:32;;;;;;;4.13;3.73;;;18.00;1.00;;;;;;5045470;28;20240;-80
2023/08/30 09:07:02;;;;;;;4.60;4.00;;;18.20;99.90;;;;;;5048696;28;20202;-81
2023/08/30 09:09:27;;;;;;;5.47;3.63;;;18.20;1.00;;;;;;5051276;28;20265;-84
2023/08/30 09:11:53;;;;;;;3.90;3.40;;;18.10;1.00;;;;;;5042245;28;20619;-85
2023/08/30 09:14:19;;;;;;;4.47;3.60;;;18.00;1.00;;;;;;5034673;28;20205;-82
2023/08/30 09:16:57;;;;;;;5.07;3.90;;;18.00;1.00;;;;;;5038857;28;20311;-83
2023/08/30 09:19:24;;;;;;;4.50;4.10;;;18.10;1.00;;;;;;5070526;28;20201;-81
2023/08/30 09:21:56;;;;;;;5.40;4.50;;;18.10;99.90;;;;;;5055268;28;20259;-82
2023/08/30 09:24:23;;;;;;;6.27;5.27;;;18.10;1.00;;;;;;5048307;28;20217;-80
2023/08/30 09:26:50;;;;;;;6.67;5.40;;;18.10;1.00;;;;;;5050844;28;20546;-79
2023/08/30 09:29:17;;;;;;;6.00;4.63;;;18.10;1.00;;;;;;5043437;28;20238;-80
2023/08/30 09:31:43;;;;;;;5.13;4.40;;;18.10;99.90;;;;;;5034519;28;20264;-81
2023/08/30 09:34:11;;;;;;;6.10;4.60;;;18.10;99.90;;;;;;5034586;28;20222;-81
2023/08/30 09:36:41;;;;;;;5.30;4.57;;;18.20;99.90;;;;;;5032423;28;20179;-81
2023/08/30 09:39:12;;;;;;;7.87;5.43;;;18.30;1.00;;;;;;5034411;28;20213;-81
2023/08/30 09:41:41;;;;;;;4.93;4.43;;;18.50;99.90;;;;;;5040088;28;20267;-80
2023/08/30 09:44:20;;;;;;;5.70;5.00;;;18.60;99.90;;;;;;5041784;28;20190;-82
2023/08/30 09:46:51;;;;;;;5.63;4.80;;;18.70;99.90;;;;;;5041081;28;20170;-80
2023/08/30 09:49:20;;;;;;;8.13;4.90;;;18.70;1.00;;;;;;5053155;28;20261;-81
2023/08/30 09:51:47;;;;;;;5.37;4.53;;;18.80;1.00;;;;;;5053826;28;20209;-86
2023/08/30 09:54:21;;;;;;;5.57;4.47;;;18.80;99.90;;;;;;5053337;28;20572;-87
2023/08/30 09:56:47;;;;;;;6.03;4.93;;;18.90;99.90;;;;;;5052945;28;20201;-85
2023/08/30 09:59:14;;;;;;;6.43;5.77;;;18.90;99.90;;;;;;5053011;28;20178;-87
2023/08/30 10:01:41;;;;;;;7.83;5.90;;;18.90;1.00;;;;;;5053708;28;20612;-83
2023/08/30 10:04:10;;;;;;;6.30;5.70;;;19.20;99.90;;;;;;5054002;28;20227;-87
2023/08/30 10:06:37;;;;;;;6.87;6.23;;;19.30;1.00;;;;;;5052929;28;20170;-84
2023/08/30 10:09:04;;;;;;;6.40;5.40;;;19.20;86.30;;;;;;5053082;28;20526;-84
2023/08/30 10:11:33;;;;;;;6.73;5.60;;;19.20;99.90;;;;;;5052785;28;20257;-85
2023/08/30 10:13:59;;;;;;;5.95;5.25;;;19.30;1.00;;;;;;5053187;28;20606;-83
2023/08/30 10:16:27;;;;;;;5.17;4.67;;;19.30;99.90;;;;;;5052840;28;20265;-81
2023/08/30 10:19:05;;;;;;;6.15;5.53;;;19.40;1.00;;;;;;5053370;28;20264;-85
2023/08/30 10:21:31;;;;;;;5.38;4.55;;;19.50;99.90;;;;;;5053622;28;20201;-83
2023/08/30 10:23:58;;;;;;;5.75;4.80;;;19.60;99.90;;;;;;5052583;28;20174;-83
2023/08/30 10:26:26;;;;;;;5.97;5.13;;;19.70;99.90;;;;;;5053355;28;20180;-82
2023/08/30 10:28:56;;;;;;;5.20;4.70;;;19.60;1.00;;;;;;5054742;28;20193;-82
2023/08/30 10:31:22;;;;;;;6.00;5.15;;;19.60;1.00;;;;;;5053018;28;20178;-81
2023/08/30 10:33:53;;;;;;;5.47;4.97;;;19.50;99.90;;;;;;5055428;28;20189;-83
2023/08/30 10:36:26;;;;;;;5.18;4.68;;;19.50;1.00;;;;;;5053736;28;20181;-81
2023/08/30 10:38:55;;;;;;;5.47;4.83;;;19.30;1.00;;;;;;5053567;28;20181;-82
2023/08/30 10:41:25;;;;;;;7.80;4.77;;;19.30;1.00;;;;;;5053842;28;20208;-82
2023/08/30 10:43:54;;;;;;;5.25;4.50;;;19.40;99.90;;;;;;5053931;28;20169;-83
2023/08/30 10:46:34;;;;;;;4.57;4.18;;;19.60;99.90;;;;;;5054380;28;20180;-83
2023/08/30 10:49:11;;;;;;;4.78;4.32;;;19.90;99.90;;;;;;5054114;28;20174;-83
2023/08/30 10:51:38;;;;;;;4.53;3.88;;;19.90;99.90;;;;;;5049862;28;20261;-82
2023/08/30 10:54:17;;;;;;;4.78;4.22;;;20.00;1.00;;;;;;5052738;28;20280;-88
2023/08/30 10:56:51;;;;;;;4.45;3.65;;;19.90;1.00;;;;;;5033666;28;20214;-82
2023/08/30 10:59:21;;;;;;;4.18;3.75;;;20.10;99.20;;;;;;5032244;28;20181;-82
2023/08/30 11:01:48;;;;;;;4.60;3.80;;;20.10;99.90;;;;;;5036279;28;20730;-82
2023/08/30 11:04:17;;;;;;;3.72;3.35;;;20.10;1.00;;;;;;5052095;28;20217;-83
2023/08/30 11:06:47;;;;;;;5.03;3.50;;;20.10;1.00;;;;;;5049627;28;20542;-80
2023/08/30 11:09:17;;;;;;;4.82;3.75;;;20.10;25.60;;;;;;5033389;28;20175;-81
2023/08/30 11:11:45;;;;;;;4.82;3.10;;;20.30;1.00;;;;;;5035956;28;20618;-81
2023/08/30 11:14:11;;;;;;;4.63;3.53;;;20.40;99.90;;;;;;5052066;28;20225;-82
2023/08/30 11:16:38;;;;;;;5.13;4.20;;;20.50;1.00;;;;;;5051624;28;20209;-82
2023/08/30 11:19:05;;;;;;;5.75;4.00;;;20.40;1.00;;;;;;5051465;28;20235;-80
2023/08/30 11:21:32;;;;;;;4.88;3.67;;;20.30;99.90;;;;;;5049822;28;20236;-83
2023/08/30 11:23:57;;;;;;;4.10;3.55;;;20.00;1.00;;;;;;5031459;28;20182;-81
2023/08/30 11:26:23;;;;;;;6.25;4.25;;;20.10;95.80;;;;;;5033117;28;20189;-81
2023/08/30 11:28:51;;;;;;;5.03;3.88;;;20.20;1.00;;;;;;5030694;28;20185;-82
2023/08/30 11:31:27;;;;;;;4.20;3.80;;;20.30;99.90;;;;;;5032050;28;20228;-82
2023/08/30 11:33:55;;;;;;;3.47;3.17;;;20.40;23.50;;;;;;5031311;28;20208;-82
2023/08/30 11:36:22;;;;;;;3.90;3.50;;;20.40;99.90;;;;;;5032545;28;20186;-82
2023/08/30 11:38:49;;;;;;;4.25;3.28;;;20.50;1.00;;;;;;5032799;28;20178;-82
2023/08/30 11:41:14;;;;;;;4.25;2.78;;;20.50;1.00;;;;;;5030893;28;20202;-80
2023/08/30 11:43:40;;;;;;;3.47;3.10;;;20.50;99.90;;;;;;5050295;28;20177;-81
2023/08/30 11:46:06;;;;;;;4.00;3.47;;;20.60;99.90;;;;;;5050712;28;20193;-81
2023/08/30 11:48:32;;;;;;;3.60;2.92;;;20.60;99.90;;;;;;5052057;28;20204;-83
2023/08/30 11:50:59;;;;;;;3.33;3.03;;;20.60;99.90;;;;;;5050431;28;20188;-83
2023/08/30 11:53:25;;;;;;;3.50;3.13;;;20.70;99.90;;;;;;5035904;28;20179;-82
2023/08/30 11:55:51;;;;;;;3.25;2.95;;;20.70;99.90;;;;;;5032354;28;20209;-83
2023/08/30 11:58:18;;;;;;;3.35;3.05;;;20.70;99.90;;;;;;5044976;28;20219;-82
2023/08/30 12:00:45;;;;;;;3.33;2.83;;;21.00;1.00;;;;;;5049448;28;20198;-83
2023/08/30 12:03:14;;;;;;;3.35;2.97;;;21.20;99.90;;;;;;5036936;28;20185;-82
2023/08/30 12:05:50;;;;;;;3.30;3.00;;;21.20;1.00;;;;;;5030492;28;20205;-82
2023/08/30 12:08:19;;;;;;;3.25;2.60;;;21.40;99.90;;;;;;5043761;28;20173;-80
2023/08/30 12:10:46;;;;;;;3.10;2.78;;;21.30;99.90;;;;;;5050316;28;20174;-79
2023/08/30 12:13:31;;;;;;;3.38;2.80;;;21.30;1.00;;;;;;5051527;28;20165;-80
2023/08/30 12:15:58;;;;;;;2.75;2.40;;;21.20;1.00;;;;;;5050566;28;20201;-79
2023/08/30 12:18:29;;;;;;;2.58;2.38;;;21.20;99.90;;;;;;5033178;28;20236;-80
2023/08/30 12:20:58;;;;;;;3.22;2.45;;;21.20;1.00;;;;;;5031334;28;20288;-80
2023/08/30 12:23:25;;;;;;;3.08;2.67;;;21.30;1.00;;;;;;5049247;28;20166;-80
2023/08/30 12:26:17;;;;;;;2.95;2.70;;;21.40;30.50;;;;;;5051660;28;20201;-80
2023/08/30 12:28:45;;;;;;;2.63;2.40;;;21.30;1.00;;;;;;5029832;28;20186;-79
2023/08/30 12:31:11;;;;;;;2.95;2.67;;;21.10;99.90;;;;;;5030354;28;20206;-80
2023/08/30 12:33:39;;;;;;;2.63;2.42;;;21.20;1.00;;;;;;5031913;28;20205;-80
2023/08/30 12:36:05;;;;;;;3.22;2.40;;;21.40;1.00;;;;;;5030968;28;20190;-78
2023/08/30 12:38:31;;;;;;;2.60;2.40;;;21.60;1.00;;;;;;5049324;28;20558;-79
2023/08/30 12:40:56;;;;;;;3.03;2.70;;;21.70;99.90;;;;;;5054911;28;20283;-80
2023/08/30 12:43:23;;;;;;;2.60;2.40;;;21.80;99.90;;;;;;5056154;28;20655;-79
2023/08/30 12:45:49;;;;;;;3.50;2.58;;;21.40;99.90;;;;;;5055685;28;20201;-80
2023/08/30 12:48:16;;;;;;;3.00;2.25;;;21.30;1.00;;;;;;5049041;28;20177;-80